Etusivu
METAR-TAF:

METAR-TAF

Lentoasemat :

Saarbrücken, Saksa

Leveyspiiri: 49-13N, Pituuspiiri: 007-07E, korkeus merenpinnasta: 322 m

Tämänhetkinen sää

Tämä raportti tehtiin 23 minuuttia sitten, kello 05.20 UTC
Tuuli 12 kn koillisesta
Lämpötila 1°C
Kosteus 40%
Ilmanpaine 1035 hPa
Näkyvyys 10 km tai enemmän
ei pilviä alle 1500 m:ssä eikä cumulonimbus-pilviä

METAR: EDDR 240520Z 05012KT CAVOK 01/M11 Q1035 NOSIG

Aika: 06:43 (05:43 UTC)

Sääennuste

Tämä raportti tehtiin 43 minuuttia sitten, kello 05.00 UTC
Ennuste voimassa 24. päivästä klo 06 UTC - 25. päivään klo 06 UTC
Tuuli 10 kn koillisesta
Näkyvyys 10 km tai enemmän
ei pilviä alle 1500 m:ssä eikä cumulonimbus-pilviä

TAF: EDDR 240500Z 2406/2506 05010KT CAVOK

Säähavainnot ja -ennusteet yli 4000 lentoasemalta (METAR- ja TAF-raportit).

Käytössä olevat sääasemat on merkitty karttaan keltaisilla ja punaisilla pisteillä.

Aseta hiiri pisteen päälle nähdäksesi sääaseman nimen.

Klikkaa sitten nähdäksesi säähavainnot ja -ennusteet.

Kartan vaihtaminen: klikkaa mustalla rastilla varustettuja vihreitä pisteitä, niin voit zoomata sisään; viivalla varustettua vihreää pistettä, niin voit zoomata ulos tai vihreitä nuolia, niin pääset viereisille kartoille.


METAR-TAF: